Time;durP1;ratioP1;P1;durP2;ratioP2;P2;SDS_P1;SDS_P2;PMS_P1;PMS_P2;Temp;Humidity;BMP_temperature;BMP_pressure;BME280_temperature;BME280_humidity;BME280_pressure;Samples;Min_cycle;Max_cycle;Signal;HPM_P1;HPM_P2
2023/08/26 00:36:55;;;;;;;3.93;3.40;;;20.40;15.30;;;;;;4713249;30;20580;-89
2023/08/26 00:39:56;;;;;;;3.00;2.70;;;;;;;;;;4791953;29;20476;-88
2023/08/26 00:42:50;;;;;;;2.63;2.43;;;20.40;99.90;;;;;;4921155;29;20928;-89
2023/08/26 00:45:27;;;;;;;10.27;3.87;;;;;;;;;;4926502;28;20492;-89
2023/08/26 00:48:12;;;;;;;2.77;2.57;;;;;;;;;;5016943;28;20456;-89
2023/08/26 00:50:51;;;;;;;2.90;2.67;;;20.20;1.00;;;;;;5015793;28;20448;-89
2023/08/26 00:53:41;;;;;;;3.13;2.93;;;20.10;43.50;;;;;;5000635;28;20442;-89
2023/08/26 00:56:25;;;;;;;5.27;3.03;;;;;;;;;;4999734;28;20449;-88
2023/08/26 01:01:49;;;;;;;4.30;2.90;;;;;;;;;;4997704;28;20503;-89
2023/08/26 01:10:40;;;;;;;3.40;3.10;;;20.20;1.00;;;;;;4985749;28;20454;-89
2023/08/26 01:13:45;;;;;;;3.00;2.50;;;20.20;1.00;;;;;;4994295;28;20442;-88
2023/08/26 01:19:32;;;;;;;4.13;2.93;;;20.20;99.90;;;;;;4972888;28;20573;-88
2023/08/26 01:28:45;;;;;;;3.87;3.07;;;;;;;;;;4970419;28;20481;-90
2023/08/26 01:31:58;;;;;;;5.03;3.20;;;20.10;1.00;;;;;;4978655;28;20441;-89
2023/08/26 01:34:52;;;;;;;4.27;2.70;;;20.10;99.90;;;;;;4901026;29;20890;-89
2023/08/26 01:37:58;;;;;;;4.20;3.37;;;20.10;99.90;;;;;;4845826;29;20497;-88
2023/08/26 01:40:58;;;;;;;2.40;2.20;;;20.10;1.00;;;;;;4793603;29;20454;-89
2023/08/26 01:46:44;;;;;;;3.43;2.80;;;;;;;;;;4951756;28;20567;-88
2023/08/26 01:49:25;;;;;;;4.63;2.50;;;;;;;;;;4978541;28;20481;-89
2023/08/26 01:51:52;;;;;;;2.90;2.70;;;;;;;;;;4977351;28;20437;-88
2023/08/26 01:54:21;;;;;;;3.23;3.03;;;;;;;;;;4975871;28;20522;-88
2023/08/26 01:56:48;;;;;;;2.90;2.70;;;;;;;;;;4977627;28;20465;-88
2023/08/26 01:59:16;;;;;;;2.60;2.40;;;;;;;;;;4977295;28;20518;-88
2023/08/26 02:01:43;;;;;;;2.93;2.70;;;19.80;1.00;;;;;;4988994;28;20448;-88
2023/08/26 02:04:10;;;;;;;2.93;2.60;;;19.80;40.90;;;;;;4995631;28;20453;-88
2023/08/26 02:06:40;;;;;;;3.23;2.50;;;19.90;1.00;;;;;;4994850;28;20509;-88
2023/08/26 02:09:06;;;;;;;4.07;2.70;;;19.80;1.00;;;;;;4997243;28;20494;-88
2023/08/26 02:11:33;;;;;;;3.60;3.17;;;19.80;1.00;;;;;;4997355;28;20497;-88
2023/08/26 02:14:00;;;;;;;5.03;3.00;;;19.90;1.00;;;;;;4985455;28;20445;-88
2023/08/26 02:16:28;;;;;;;3.03;2.50;;;19.80;1.00;;;;;;4979314;28;20452;-88
2023/08/26 02:18:55;;;;;;;3.77;2.80;;;19.30;99.90;;;;;;4981894;28;20466;-88
2023/08/26 02:21:22;;;;;;;4.90;2.73;;;19.80;95.20;;;;;;4988807;28;20492;-87
2023/08/26 02:23:49;;;;;;;2.80;2.60;;;19.80;99.90;;;;;;4981842;28;20460;-87
2023/08/26 02:26:16;;;;;;;4.97;2.77;;;19.80;1.00;;;;;;4976750;28;20528;-88
2023/08/26 02:28:42;;;;;;;4.20;2.50;;;19.90;1.00;;;;;;4978301;28;20472;-87
2023/08/26 02:31:09;;;;;;;4.23;3.47;;;19.70;99.90;;;;;;4978477;28;20855;-87
2023/08/26 02:33:37;;;;;;;3.10;2.60;;;19.60;1.00;;;;;;4977494;28;20449;-87
2023/08/26 02:36:05;;;;;;;3.37;2.70;;;19.70;1.00;;;;;;4990905;28;20461;-88
2023/08/26 02:38:32;;;;;;;4.30;3.23;;;19.70;1.00;;;;;;4996463;28;20501;-88
2023/08/26 02:40:59;;;;;;;4.10;3.23;;;19.70;1.00;;;;;;4980290;28;20446;-88
2023/08/26 02:43:26;;;;;;;6.77;4.00;;;19.70;1.00;;;;;;4978586;28;20445;-88
2023/08/26 02:45:54;;;;;;;3.93;2.60;;;20.00;13.30;;;;;;4982061;28;20517;-88
2023/08/26 02:48:21;;;;;;;3.70;2.97;;;19.70;1.00;;;;;;5007634;23;20790;-84
2023/08/26 02:50:55;;;;;;;4.53;3.47;;;19.70;1.00;;;;;;4995708;28;20440;-84
2023/08/26 02:53:22;;;;;;;5.00;3.83;;;19.70;40.50;;;;;;4994997;28;20507;-85
2023/08/26 02:55:49;;;;;;;6.60;3.73;;;19.70;99.90;;;;;;4995307;28;20544;-85
2023/08/26 02:58:16;;;;;;;4.70;2.77;;;19.70;1.00;;;;;;4994631;28;20472;-84
2023/08/26 03:00:43;;;;;;;6.40;3.27;;;19.70;1.00;;;;;;4994670;28;20448;-85
2023/08/26 03:03:10;;;;;;;3.73;3.27;;;19.60;1.00;;;;;;4994716;28;20449;-85
2023/08/26 03:05:37;;;;;;;3.47;3.17;;;19.60;1.00;;;;;;4994445;28;20954;-85
2023/08/26 03:08:05;;;;;;;3.53;2.93;;;20.00;1.00;;;;;;4994674;28;20507;-85
2023/08/26 03:10:32;;;;;;;5.23;3.57;;;19.60;99.90;;;;;;4994649;28;20459;-85
2023/08/26 03:12:59;;;;;;;3.50;3.20;;;19.70;99.90;;;;;;4994980;28;20476;-86
2023/08/26 03:15:27;;;;;;;4.30;2.87;;;19.70;99.90;;;;;;4994574;28;20540;-85
2023/08/26 03:17:54;;;;;;;4.17;3.60;;;19.60;1.00;;;;;;4994453;28;20445;-85
2023/08/26 03:20:21;;;;;;;10.33;3.87;;;19.60;99.90;;;;;;4994809;28;20458;-85
2023/08/26 03:22:48;;;;;;;4.00;3.00;;;19.60;99.90;;;;;;4994414;28;20450;-86
2023/08/26 03:25:16;;;;;;;3.47;3.10;;;19.70;1.00;;;;;;5006792;28;20435;-85
2023/08/26 03:27:43;;;;;;;3.40;2.90;;;19.60;1.00;;;;;;5006576;28;20487;-85
2023/08/26 03:30:10;;;;;;;3.70;3.10;;;19.60;1.00;;;;;;4994821;28;20483;-85
2023/08/26 03:32:37;;;;;;;14.33;4.30;;;19.60;1.00;;;;;;4994746;28;20819;-85
2023/08/26 03:35:05;;;;;;;2.97;2.77;;;19.70;1.00;;;;;;4995071;28;20444;-85
2023/08/26 03:37:31;;;;;;;3.27;2.83;;;19.70;99.90;;;;;;4997202;28;20451;-84
2023/08/26 03:39:59;;;;;;;4.37;3.33;;;19.60;99.90;;;;;;4998800;28;20465;-85
2023/08/26 03:42:28;;;;;;;5.73;4.37;;;19.60;1.00;;;;;;4998003;28;20456;-84
2023/08/26 03:44:55;;;;;;;3.00;2.80;;;19.50;1.00;;;;;;5002509;28;20444;-84
2023/08/26 03:47:22;;;;;;;7.40;3.83;;;19.50;1.00;;;;;;5015648;28;20503;-84
2023/08/26 03:49:49;;;;;;;4.50;3.63;;;19.40;96.70;;;;;;5016266;28;20490;-84
2023/08/26 03:52:17;;;;;;;4.27;3.20;;;19.40;99.90;;;;;;5008862;28;20532;-85
2023/08/26 03:54:44;;;;;;;3.40;3.10;;;19.40;99.90;;;;;;5007426;28;20452;-85
2023/08/26 03:57:10;;;;;;;3.60;3.17;;;19.40;1.00;;;;;;5014388;28;20444;-85
2023/08/26 03:59:38;;;;;;;3.00;2.70;;;19.40;1.00;;;;;;5003607;28;20547;-85
2023/08/26 04:02:05;;;;;;;9.80;3.63;;;19.40;1.00;;;;;;5001886;28;20444;-85
2023/08/26 04:04:32;;;;;;;6.10;3.37;;;19.40;1.00;;;;;;5000779;28;20447;-85
2023/08/26 04:06:59;;;;;;;4.27;3.60;;;19.40;1.00;;;;;;4999189;28;20476;-85
2023/08/26 04:09:26;;;;;;;8.10;3.80;;;19.40;1.00;;;;;;4998073;28;20551;-85
2023/08/26 04:11:52;;;;;;;4.37;3.67;;;19.40;1.00;;;;;;4997988;28;20448;-85
2023/08/26 04:14:19;;;;;;;3.93;3.37;;;19.30;1.00;;;;;;5001804;28;20487;-85
2023/08/26 04:16:47;;;;;;;4.00;3.33;;;19.30;99.90;;;;;;4997937;28;20455;-85
2023/08/26 04:19:15;;;;;;;6.30;3.47;;;19.30;99.90;;;;;;4998149;28;20842;-85
2023/08/26 04:21:42;;;;;;;4.97;3.40;;;19.30;99.90;;;;;;4997462;28;20452;-85
2023/08/26 04:24:09;;;;;;;5.90;4.23;;;19.30;75.10;;;;;;4998177;28;20813;-84
2023/08/26 04:26:35;;;;;;;5.20;3.20;;;19.30;99.90;;;;;;4998299;28;20476;-85
2023/08/26 04:29:02;;;;;;;9.43;3.70;;;19.40;99.90;;;;;;5018903;28;20491;-84
2023/08/26 04:31:29;;;;;;;7.77;4.17;;;19.30;99.90;;;;;;5018593;28;20424;-84
2023/08/26 04:33:57;;;;;;;6.63;4.53;;;19.30;99.90;;;;;;5017202;28;20427;-84
2023/08/26 04:36:24;;;;;;;5.47;3.90;;;19.30;99.90;;;;;;4998134;28;20969;-85
2023/08/26 04:38:51;;;;;;;5.40;4.40;;;19.40;99.90;;;;;;4997699;28;20543;-84
2023/08/26 04:41:18;;;;;;;5.53;4.43;;;19.30;99.90;;;;;;4997940;28;20877;-84
2023/08/26 04:43:47;;;;;;;5.83;3.90;;;19.30;99.90;;;;;;4998177;28;20886;-85
2023/08/26 04:46:13;;;;;;;4.47;4.03;;;19.40;99.90;;;;;;4996967;28;20489;-85
2023/08/26 04:48:40;;;;;;;6.50;4.47;;;19.40;99.90;;;;;;4996277;28;20559;-85
2023/08/26 04:51:09;;;;;;;10.67;4.57;;;19.40;99.90;;;;;;4999039;28;20428;-85
2023/08/26 04:53:35;;;;;;;5.37;4.30;;;19.40;99.90;;;;;;4998956;28;20543;-85
2023/08/26 04:56:03;;;;;;;6.10;4.63;;;19.40;99.90;;;;;;4997549;28;20965;-85
2023/08/26 04:58:30;;;;;;;4.40;4.00;;;19.40;99.90;;;;;;4998125;28;20503;-85
2023/08/26 05:00:57;;;;;;;6.13;5.07;;;19.40;99.90;;;;;;4998326;28;20869;-85
2023/08/26 05:03:24;;;;;;;4.60;3.83;;;19.40;99.90;;;;;;5002283;28;20539;-85
2023/08/26 05:05:51;;;;;;;8.47;4.63;;;19.40;99.90;;;;;;4997720;28;20455;-85
2023/08/26 05:08:19;;;;;;;5.03;4.53;;;19.40;99.90;;;;;;4996112;28;20492;-85
2023/08/26 05:10:46;;;;;;;8.13;5.37;;;19.40;99.90;;;;;;4996874;28;20552;-85
2023/08/26 05:13:13;;;;;;;5.97;4.83;;;19.40;99.90;;;;;;4996691;28;20475;-85
2023/08/26 05:15:39;;;;;;;5.50;4.93;;;19.40;99.90;;;;;;4996126;28;20449;-85
2023/08/26 05:18:06;;;;;;;7.90;4.27;;;19.50;99.90;;;;;;4995796;28;20968;-85
2023/08/26 05:20:33;;;;;;;5.20;4.50;;;19.40;99.90;;;;;;4996764;28;20456;-85
2023/08/26 05:23:00;;;;;;;6.33;5.07;;;19.40;99.90;;;;;;4996801;28;20495;-85
2023/08/26 05:25:28;;;;;;;5.70;4.90;;;19.50;99.90;;;;;;4996564;28;20526;-85
2023/08/26 05:27:55;;;;;;;6.57;5.13;;;19.40;99.90;;;;;;5000366;28;20880;-85
2023/08/26 05:30:22;;;;;;;5.97;4.70;;;19.50;99.90;;;;;;4997420;28;20449;-85
2023/08/26 05:32:49;;;;;;;6.80;4.40;;;19.50;99.90;;;;;;5016058;28;20468;-85
2023/08/26 05:35:16;;;;;;;6.10;5.00;;;19.50;99.90;;;;;;5018815;28;20472;-85
2023/08/26 05:37:45;;;;;;;6.40;4.53;;;19.50;99.90;;;;;;5018819;28;20468;-84
2023/08/26 05:40:12;;;;;;;7.23;5.57;;;19.50;99.90;;;;;;5018980;28;20453;-85
2023/08/26 05:42:41;;;;;;;6.00;5.40;;;19.50;99.90;;;;;;5002017;28;20881;-85
2023/08/26 05:45:08;;;;;;;6.17;5.57;;;19.60;99.90;;;;;;4999888;28;20452;-85
2023/08/26 05:47:35;;;;;;;5.93;5.30;;;19.50;99.90;;;;;;4998434;28;20567;-85
2023/08/26 05:50:03;;;;;;;11.03;5.90;;;19.50;99.90;;;;;;4997687;28;21103;-85
2023/08/26 05:52:30;;;;;;;6.40;5.57;;;19.50;99.90;;;;;;5000932;28;20820;-85
2023/08/26 05:54:57;;;;;;;7.37;6.20;;;19.50;99.90;;;;;;4997716;28;20452;-85
2023/08/26 05:57:24;;;;;;;8.10;6.30;;;19.50;99.90;;;;;;4998000;28;20964;-85
2023/08/26 05:59:52;;;;;;;6.10;5.50;;;19.50;99.90;;;;;;4996853;28;20492;-85
2023/08/26 06:02:19;;;;;;;8.17;5.47;;;19.50;99.90;;;;;;4997878;28;20459;-85
2023/08/26 06:04:46;;;;;;;6.23;5.60;;;19.50;99.90;;;;;;4997812;28;20449;-85
2023/08/26 06:07:12;;;;;;;6.57;6.00;;;19.60;99.90;;;;;;4996322;28;20459;-85
2023/08/26 06:09:39;;;;;;;7.17;5.87;;;19.60;99.90;;;;;;4996999;28;20468;-85
2023/08/26 06:12:08;;;;;;;6.83;6.20;;;19.60;99.90;;;;;;4996873;28;20878;-85
2023/08/26 06:14:35;;;;;;;8.67;6.47;;;19.60;99.90;;;;;;4996835;28;20480;-85
2023/08/26 06:17:04;;;;;;;8.90;6.67;;;19.60;99.90;;;;;;4997074;28;20523;-85
2023/08/26 06:19:30;;;;;;;8.80;6.43;;;19.60;99.90;;;;;;4995956;28;20484;-86
2023/08/26 06:21:57;;;;;;;8.50;6.20;;;19.60;99.90;;;;;;4997105;28;20452;-85
2023/08/26 06:24:24;;;;;;;6.23;5.60;;;19.60;99.90;;;;;;4996470;28;20816;-85
2023/08/26 06:26:51;;;;;;;10.60;5.83;;;19.90;99.90;;;;;;4996574;28;20543;-85
2023/08/26 06:29:19;;;;;;;9.00;6.50;;;19.60;99.90;;;;;;4996972;28;20492;-86
2023/08/26 06:31:46;;;;;;;11.67;6.87;;;19.60;99.90;;;;;;4996893;28;20875;-85
2023/08/26 06:34:14;;;;;;;9.73;6.50;;;19.60;99.90;;;;;;4996396;28;20489;-85
2023/08/26 06:36:41;;;;;;;10.23;6.83;;;19.70;99.90;;;;;;4995740;28;20487;-85
2023/08/26 06:39:08;;;;;;;5.83;5.27;;;19.80;99.90;;;;;;5017243;28;20528;-85
2023/08/26 06:41:35;;;;;;;16.53;7.17;;;19.90;99.90;;;;;;5018732;28;20464;-85
2023/08/26 06:44:02;;;;;;;13.23;7.03;;;19.90;99.90;;;;;;5017498;28;20500;-86
2023/08/26 06:46:29;;;;;;;9.57;7.20;;;20.40;99.90;;;;;;5010926;28;20432;-85
2023/08/26 06:48:56;;;;;;;7.47;6.77;;;20.00;99.90;;;;;;5013964;28;20488;-85
2023/08/26 06:51:24;;;;;;;7.23;5.97;;;20.20;99.90;;;;;;5017715;28;20515;-85
2023/08/26 06:53:51;;;;;;;10.60;7.20;;;20.20;99.90;;;;;;5010627;28;20624;-86
2023/08/26 06:56:18;;;;;;;7.73;6.20;;;20.10;99.90;;;;;;5000151;28;20451;-85
2023/08/26 06:58:45;;;;;;;7.47;5.73;;;20.30;99.90;;;;;;4998717;28;20547;-85
2023/08/26 07:01:12;;;;;;;6.87;6.20;;;20.30;99.90;;;;;;4999666;28;20456;-86
2023/08/26 07:04:00;;;;;;;;;;;;;;;;;;;;;
2023/08/26 07:06:29;;;;;;;7.17;6.27;;;20.30;99.90;;;;;;4997818;28;20531;-85
2023/08/26 07:08:57;;;;;;;10.80;9.33;;;20.50;99.90;;;;;;5001008;28;20492;-86
2023/08/26 07:11:24;;;;;;;6.10;5.50;;;20.40;99.90;;;;;;4998677;28;20455;-85
2023/08/26 07:13:51;;;;;;;6.90;6.23;;;20.50;99.90;;;;;;5000841;28;20476;-85
2023/08/26 07:16:18;;;;;;;7.93;6.60;;;20.50;99.90;;;;;;5002246;28;20483;-85
2023/08/26 07:18:45;;;;;;;11.77;6.43;;;20.50;99.90;;;;;;5000211;28;20551;-85
2023/08/26 07:21:11;;;;;;;6.53;5.90;;;20.60;99.90;;;;;;5000967;28;20535;-85
2023/08/26 07:23:40;;;;;;;8.60;6.70;;;20.70;99.90;;;;;;4999663;28;20531;-84
2023/08/26 07:26:06;;;;;;;8.53;7.70;;;20.70;99.90;;;;;;5003022;28;20475;-84
2023/08/26 07:28:33;;;;;;;7.60;6.90;;;;;;;;;;5010681;28;20519;-85
2023/08/26 07:31:03;;;;;;;8.50;6.93;;;20.70;99.90;;;;;;5012865;28;20444;-84
2023/08/26 07:33:30;;;;;;;10.57;7.97;;;20.80;99.90;;;;;;5006690;28;20798;-85
2023/08/26 07:36:02;;;;;;;8.93;6.83;;;20.60;99.90;;;;;;5004804;28;20449;-85
2023/08/26 07:38:29;;;;;;;8.37;6.90;;;20.70;99.90;;;;;;5002291;28;20463;-85
2023/08/26 07:40:57;;;;;;;9.40;6.77;;;20.80;99.90;;;;;;5011919;28;20475;-85
2023/08/26 07:43:24;;;;;;;8.00;7.27;;;20.70;99.90;;;;;;5009495;28;20455;-85
2023/08/26 07:45:51;;;;;;;8.90;7.90;;;20.70;99.90;;;;;;5005273;28;20479;-86
2023/08/26 07:48:18;;;;;;;9.83;7.10;;;20.80;99.90;;;;;;5007679;28;20494;-83
2023/08/26 07:50:45;;;;;;;10.73;8.73;;;20.80;99.90;;;;;;5005039;28;20456;-83
2023/08/26 07:53:11;;;;;;;12.33;8.20;;;20.90;99.90;;;;;;5009303;28;20538;-83
2023/08/26 07:55:38;;;;;;;14.90;8.87;;;20.90;99.90;;;;;;5006701;28;20981;-83
2023/08/26 07:58:06;;;;;;;8.43;7.53;;;20.60;99.90;;;;;;5004107;28;20536;-83
2023/08/26 08:00:33;;;;;;;11.00;8.90;;;21.00;99.90;;;;;;5004909;28;20884;-83
2023/08/26 08:03:00;;;;;;;11.50;8.53;;;20.90;99.90;;;;;;5003045;28;20535;-83
2023/08/26 08:05:27;;;;;;;9.43;8.53;;;20.90;99.90;;;;;;5002471;28;20441;-85
2023/08/26 08:07:54;;;;;;;13.10;9.27;;;20.60;99.90;;;;;;5004835;28;20936;-85
2023/08/26 08:10:20;;;;;;;13.37;9.90;;;20.80;99.90;;;;;;5003585;28;20451;-85
2023/08/26 08:12:47;;;;;;;12.70;10.30;;;20.80;99.90;;;;;;5000503;28;20945;-85
2023/08/26 08:15:15;;;;;;;11.43;10.17;;;20.70;99.90;;;;;;5016539;28;20476;-85
2023/08/26 08:17:42;;;;;;;10.43;9.40;;;20.70;99.90;;;;;;5019322;28;20500;-85
2023/08/26 08:20:10;;;;;;;11.07;9.90;;;20.70;99.90;;;;;;5005889;28;20471;-85
2023/08/26 08:22:39;;;;;;;12.03;10.83;;;20.70;99.90;;;;;;4999440;28;20445;-85
2023/08/26 08:25:07;;;;;;;12.30;11.10;;;20.80;99.90;;;;;;5000110;28;21053;-85
2023/08/26 08:27:35;;;;;;;12.43;11.13;;;20.70;99.90;;;;;;5000264;28;20452;-85
2023/08/26 08:30:03;;;;;;;12.77;11.57;;;20.80;99.90;;;;;;4999480;28;20554;-86
2023/08/26 08:32:31;;;;;;;15.27;12.03;;;20.80;99.90;;;;;;4998264;28;21052;-86
2023/08/26 08:34:58;;;;;;;13.70;11.33;;;20.80;99.90;;;;;;4999783;28;20455;-85
2023/08/26 08:37:25;;;;;;;12.40;10.10;;;20.80;99.90;;;;;;4999016;28;20502;-85
2023/08/26 08:39:52;;;;;;;14.50;10.73;;;20.90;99.90;;;;;;4998241;28;20550;-85
2023/08/26 08:42:19;;;;;;;20.07;14.47;;;20.90;99.90;;;;;;4998754;28;20542;-85
2023/08/26 08:44:47;;;;;;;12.80;11.57;;;21.00;99.90;;;;;;5008632;28;20435;-84
2023/08/26 08:47:14;;;;;;;14.00;12.60;;;21.10;99.90;;;;;;5020709;28;20443;-82
2023/08/26 08:49:46;;;;;;;12.90;11.53;;;21.20;99.90;;;;;;5020097;28;20479;-83
2023/08/26 08:52:13;;;;;;;14.70;11.57;;;21.30;99.90;;;;;;5018933;28;20897;-85
2023/08/26 08:54:41;;;;;;;13.80;11.63;;;21.30;99.90;;;;;;5004278;28;21031;-86
2023/08/26 08:57:11;;;;;;;13.63;11.40;;;21.30;99.90;;;;;;4999063;28;20507;-86
2023/08/26 08:59:39;;;;;;;12.63;9.30;;;21.30;99.90;;;;;;4999252;28;20471;-89
2023/08/26 09:02:06;;;;;;;9.90;8.30;;;21.30;99.90;;;;;;5002064;28;20496;-85
2023/08/26 09:04:33;;;;;;;10.63;9.70;;;21.30;99.90;;;;;;5003861;28;20452;-84
2023/08/26 09:07:03;;;;;;;8.40;7.70;;;21.20;99.90;;;;;;5006266;28;20533;-84
2023/08/26 09:09:30;;;;;;;8.50;7.70;;;21.00;99.90;;;;;;5002839;28;20488;-84
2023/08/26 09:11:57;;;;;;;9.03;8.00;;;20.90;99.90;;;;;;5005868;28;20448;-83
2023/08/26 09:14:26;;;;;;;11.80;9.67;;;21.20;99.90;;;;;;5003514;28;20468;-83
2023/08/26 09:16:56;;;;;;;10.27;7.83;;;21.10;99.90;;;;;;5006431;28;20449;-84
2023/08/26 09:19:23;;;;;;;11.20;8.07;;;21.10;99.90;;;;;;5000715;28;20830;-83
2023/08/26 09:21:49;;;;;;;9.40;8.03;;;21.00;99.90;;;;;;5000892;28;20508;-84
2023/08/26 09:24:18;;;;;;;9.63;8.60;;;21.00;99.90;;;;;;5000711;28;20476;-83
2023/08/26 09:26:58;;;;;;;10.33;7.80;;;20.90;99.90;;;;;;4999145;28;20547;-84
2023/08/26 09:29:26;;;;;;;8.80;8.00;;;21.00;99.90;;;;;;5000749;28;20484;-84
2023/08/26 09:31:53;;;;;;;12.37;9.77;;;20.80;99.90;;;;;;4998550;28;20992;-86
2023/08/26 09:34:24;;;;;;;10.10;8.17;;;21.20;99.90;;;;;;4999944;28;20460;-84
2023/08/26 09:37:16;;;;;;;9.80;7.73;;;21.20;99.90;;;;;;5000523;28;20436;-91
2023/08/26 09:39:47;;;;;;;8.77;8.00;;;22.00;99.90;;;;;;4998086;28;20551;-85
2023/08/26 09:42:14;;;;;;;7.70;7.00;;;21.50;99.90;;;;;;4996795;28;20957;-86
2023/08/26 09:44:42;;;;;;;9.97;8.97;;;21.70;99.90;;;;;;4997431;28;20535;-84
2023/08/26 09:47:13;;;;;;;17.93;15.17;;;21.80;99.90;;;;;;4997672;28;20448;-86
2023/08/26 09:49:48;;;;;;;14.00;12.50;;;22.40;99.90;;;;;;4996701;28;20496;-85
2023/08/26 09:52:15;;;;;;;8.23;7.43;;;22.00;99.90;;;;;;4996627;28;20420;-85
2023/08/26 09:54:43;;;;;;;12.90;9.60;;;22.10;99.90;;;;;;4996308;28;20452;-85
2023/08/26 09:57:12;;;;;;;7.70;6.87;;;22.10;99.90;;;;;;5000128;28;20523;-84
2023/08/26 09:59:39;;;;;;;11.30;9.53;;;22.00;99.90;;;;;;4999008;28;20464;-84
2023/08/26 10:02:16;;;;;;;12.03;9.53;;;22.10;75.60;;;;;;4999704;28;20454;-84
2023/08/26 10:04:45;;;;;;;13.00;9.77;;;22.20;1.00;;;;;;4997408;28;20527;-85
2023/08/26 10:07:12;;;;;;;10.77;9.67;;;22.20;99.90;;;;;;4997895;28;21000;-85
2023/08/26 10:09:49;;;;;;;11.03;9.13;;;22.30;99.90;;;;;;4998142;28;20495;-85
2023/08/26 10:12:21;;;;;;;10.60;9.43;;;22.40;99.90;;;;;;4998226;28;20428;-85
2023/08/26 10:14:51;;;;;;;10.20;9.20;;;22.30;99.90;;;;;;4998410;28;20429;-84
2023/08/26 10:17:21;;;;;;;10.83;9.37;;;22.30;95.70;;;;;;4998738;28;20441;-86
2023/08/26 10:19:48;;;;;;;14.43;10.90;;;22.20;99.90;;;;;;4998413;28;20464;-84
2023/08/26 10:22:15;;;;;;;12.63;10.10;;;22.30;99.90;;;;;;4998880;28;20441;-85
2023/08/26 10:24:45;;;;;;;12.63;9.33;;;22.40;6.30;;;;;;4998973;28;20449;-86
2023/08/26 10:27:12;;;;;;;10.37;9.30;;;22.50;93.50;;;;;;4999909;28;20459;-85
2023/08/26 10:29:41;;;;;;;12.03;10.83;;;22.60;99.90;;;;;;5015238;28;20530;-85
2023/08/26 10:32:19;;;;;;;10.90;9.90;;;22.80;99.90;;;;;;5015305;28;20452;-85
2023/08/26 10:34:56;;;;;;;12.70;10.77;;;22.90;55.30;;;;;;5012734;28;20960;-85
2023/08/26 10:37:25;;;;;;;10.40;8.70;;;23.10;99.90;;;;;;4999715;28;20448;-85
2023/08/26 10:39:52;;;;;;;12.50;10.05;;;23.40;99.90;;;;;;4998865;28;20436;-88
2023/08/26 10:42:21;;;;;;;13.07;11.03;;;23.50;1.00;;;;;;4997806;28;20288;-86
2023/08/26 10:44:55;;;;;;;16.67;10.93;;;23.70;1.00;;;;;;4999434;28;20449;-85
2023/08/26 10:47:35;;;;;;;11.77;9.77;;;23.80;1.00;;;;;;5000834;28;20416;-86
2023/08/26 10:50:19;;;;;;;12.87;10.70;;;23.80;99.90;;;;;;5001382;28;20487;-86
2023/08/26 10:52:49;;;;;;;11.40;10.10;;;23.90;1.00;;;;;;5002476;28;20487;-87
2023/08/26 10:55:21;;;;;;;9.73;8.20;;;24.00;1.00;;;;;;5000627;28;20444;-85
2023/08/26 10:58:19;;;;;;;11.80;10.60;;;24.30;1.00;;;;;;5001803;28;20856;-84
2023/08/26 11:00:48;;;;;;;11.97;10.80;;;24.40;99.90;;;;;;4959150;28;20421;-87
2023/08/26 11:03:18;;;;;;;10.40;9.30;;;24.60;99.90;;;;;;5004980;28;20480;-87
2023/08/26 11:08:58;;;;;;;9.40;8.50;;;25.10;99.90;;;;;;4996746;28;20605;-89
2023/08/26 11:11:31;;;;;;;10.40;9.30;;;;;;;;;;5013644;28;20535;-89
2023/08/26 11:13:59;;;;;;;10.70;8.70;;;;;;;;;;5021438;28;20453;-89
2023/08/26 11:16:28;;;;;;;9.83;7.43;;;;;;;;;;5021247;28;20483;-90
2023/08/26 11:19:05;;;;;;;10.17;9.30;;;;;;;;;;5021471;28;20456;-91
2023/08/26 11:21:37;;;;;;;10.47;7.70;;;25.20;1.00;;;;;;5017530;28;20459;-90
2023/08/26 11:24:08;;;;;;;11.67;8.73;;;;;;;;;;5006958;28;20484;-91
2023/08/26 11:26:35;;;;;;;9.13;7.33;;;;;;;;;;5004369;28;20439;-91
2023/08/26 11:29:04;;;;;;;8.47;7.60;;;;;;;;;;5005135;28;20484;-90
2023/08/26 11:31:36;;;;;;;10.87;8.63;;;;;;;;;;5004397;28;20445;-90
2023/08/26 11:34:07;;;;;;;7.90;7.20;;;;;;;;;;5004579;28;20878;-91
2023/08/26 11:36:35;;;;;;;8.00;7.20;;;;;;;;;;5006647;28;20543;-90
2023/08/26 11:39:02;;;;;;;6.50;6.00;;;;;;;;;;5006475;28;20471;-91
2023/08/26 11:41:30;;;;;;;8.63;6.27;;;;;;;;;;5004057;28;20498;-90
2023/08/26 11:44:07;;;;;;;6.27;4.83;;;;;;;;;;5002803;28;20483;-91
2023/08/26 11:46:36;;;;;;;5.80;4.53;;;;;;;;;;5006604;28;20504;-91
2023/08/26 11:49:03;;;;;;;7.03;6.33;;;;;;;;;;5020106;28;20491;-91
2023/08/26 11:51:33;;;;;;;6.20;4.90;;;;;;;;;;5020211;28;20452;-90
2023/08/26 11:54:00;;;;;;;6.63;5.00;;;;;;;;;;5021158;28;20437;-90
2023/08/26 11:56:30;;;;;;;6.00;5.43;;;25.60;1.00;;;;;;5017343;28;20452;-91
2023/08/26 11:59:04;;;;;;;7.00;6.13;;;25.50;1.00;;;;;;5006465;28;20504;-91
2023/08/26 12:01:33;;;;;;;8.00;6.00;;;25.50;1.00;;;;;;5004843;28;20448;-91
2023/08/26 12:04:02;;;;;;;6.40;4.90;;;;;;;;;;5010969;28;21012;-91
2023/08/26 12:06:31;;;;;;;5.50;4.80;;;;;;;;;;5006289;28;20445;-91
2023/08/26 12:09:00;;;;;;;5.37;4.83;;;;;;;;;;5000872;28;20499;-91
2023/08/26 12:11:35;;;;;;;11.70;5.30;;;;;;;;;;5005195;28;20487;-91
2023/08/26 12:14:27;;;;;;;6.40;5.73;;;24.80;1.00;;;;;;5006149;28;20452;-91
2023/08/26 12:17:04;;;;;;;4.90;4.30;;;24.90;1.00;;;;;;5004592;28;20471;-91
2023/08/26 12:19:34;;;;;;;5.53;4.83;;;;;;;;;;5004464;28;20472;-91
2023/08/26 12:22:04;;;;;;;4.20;3.87;;;;;;;;;;5006093;28;20448;-90
2023/08/26 12:24:31;;;;;;;7.60;4.50;;;;;;;;;;5008629;28;20865;-90
2023/08/26 12:27:07;;;;;;;5.90;4.67;;;24.90;1.00;;;;;;5002510;28;20471;-91
2023/08/26 12:29:39;;;;;;;7.77;5.37;;;;;;;;;;5003597;28;20500;-91
2023/08/26 12:32:06;;;;;;;8.23;5.40;;;;;;;;;;5008134;28;20443;-90
2023/08/26 12:34:35;;;;;;;8.23;5.70;;;;;;;;;;5019253;28;20440;-90
2023/08/26 12:37:37;;;;;;;3.97;3.63;;;24.90;1.00;;;;;;5019175;28;20452;-91
2023/08/26 12:43:50;;;;;;;5.30;4.80;;;;;;;;;;4948431;28;20455;-90
2023/08/26 12:49:38;;;;;;;4.50;3.80;;;25.10;1.00;;;;;;4941730;29;20479;-90
2023/08/26 12:52:06;;;;;;;9.80;3.97;;;;;;;;;;4938964;29;20479;-90
2023/08/26 12:54:41;;;;;;;4.70;4.23;;;25.10;1.00;;;;;;4946225;29;20507;-90
2023/08/26 12:57:12;;;;;;;9.13;4.17;;;;;;;;;;4947809;29;20570;-90
2023/08/26 12:59:39;;;;;;;5.40;4.90;;;;;;;;;;4949138;28;20471;-91
2023/08/26 13:02:07;;;;;;;9.37;6.83;;;;;;;;;;5006350;28;20464;-90
2023/08/26 13:04:34;;;;;;;6.60;6.00;;;;;;;;;;5008452;28;20453;-90
2023/08/26 13:07:04;;;;;;;5.33;4.83;;;;;;;;;;5012097;28;20452;-90
2023/08/26 13:09:31;;;;;;;5.73;3.97;;;;;;;;;;5007039;28;20492;-90
2023/08/26 13:11:58;;;;;;;4.80;4.37;;;;;;;;;;5005180;28;20919;-90
2023/08/26 13:14:26;;;;;;;6.60;5.53;;;;;;;;;;4999983;28;20635;-90
2023/08/26 13:16:56;;;;;;;7.07;6.00;;;;;;;;;;5001117;28;20457;-90
2023/08/26 13:19:24;;;;;;;5.27;4.73;;;;;;;;;;5017089;28;20483;-91
2023/08/26 13:21:53;;;;;;;5.73;5.20;;;;;;;;;;5019427;28;20432;-91
2023/08/26 13:24:22;;;;;;;4.97;4.57;;;;;;;;;;5019174;28;20466;-91
2023/08/26 13:26:49;;;;;;;5.03;4.53;;;;;;;;;;5000936;28;20945;-91
2023/08/26 13:29:16;;;;;;;5.37;4.93;;;;;;;;;;5000738;28;20464;-90
2023/08/26 13:31:43;;;;;;;5.90;4.83;;;;;;;;;;4999549;28;20496;-91
2023/08/26 13:34:11;;;;;;;6.13;5.53;;;;;;;;;;5002468;28;20456;-91
2023/08/26 13:36:38;;;;;;;5.27;4.70;;;;;;;;;;5001299;28;20507;-91
2023/08/26 13:39:06;;;;;;;10.43;4.60;;;;;;;;;;5001368;28;20496;-90
2023/08/26 13:41:37;;;;;;;6.97;4.63;;;;;;;;;;5001694;28;20440;-91
2023/08/26 13:44:05;;;;;;;5.50;5.00;;;;;;;;;;5001825;28;20517;-90
2023/08/26 13:46:33;;;;;;;5.23;4.70;;;;;;;;;;5000392;28;20452;-90
2023/08/26 13:49:01;;;;;;;4.60;4.30;;;;;;;;;;5002351;28;20504;-90
2023/08/26 13:51:28;;;;;;;8.37;5.03;;;;;;;;;;5001628;28;20571;-90
2023/08/26 13:53:58;;;;;;;5.53;5.03;;;;;;;;;;5001375;28;20452;-89
2023/08/26 13:56:50;;;;;;;6.47;5.20;;;;;;;;;;4999993;28;20440;-90
2023/08/26 13:59:21;;;;;;;6.60;6.10;;;;;;;;;;5002833;28;20587;-91
2023/08/26 14:01:50;;;;;;;5.73;5.07;;;;;;;;;;5013026;28;20444;-90
2023/08/26 14:04:24;;;;;;;5.37;4.80;;;24.60;1.00;;;;;;5001212;28;20452;-90
2023/08/26 14:06:53;;;;;;;5.33;4.83;;;;;;;;;;5004594;28;20417;-90
2023/08/26 14:09:21;;;;;;;6.10;5.60;;;;;;;;;;5016126;28;20464;-90
2023/08/26 14:11:51;;;;;;;9.90;5.60;;;;;;;;;;5016099;28;20468;-92
2023/08/26 14:14:19;;;;;;;5.63;5.20;;;;;;;;;;5017994;28;20508;-91
2023/08/26 14:16:48;;;;;;;5.00;4.53;;;;;;;;;;5018653;28;20575;-92
2023/08/26 14:19:18;;;;;;;5.20;4.80;;;;;;;;;;5018816;28;20476;-90
2023/08/26 14:21:48;;;;;;;4.77;4.37;;;;;;;;;;5018023;28;20447;-91
2023/08/26 14:24:18;;;;;;;5.03;4.53;;;;;;;;;;5018766;28;20436;-92
2023/08/26 14:26:50;;;;;;;6.43;5.23;;;;;;;;;;5019058;28;20456;-92
2023/08/26 14:29:20;;;;;;;5.60;4.73;;;;;;;;;;5018667;28;20488;-93
2023/08/26 14:31:49;;;;;;;4.73;4.33;;;;;;;;;;5018732;28;20444;-91
2023/08/26 14:34:28;;;;;;;4.20;3.90;;;;;;;;;;5018692;28;20429;-92